createdAt,value
2018-06-01T00:00:32.751Z,20.69
2018-06-01T00:03:00.212Z,20.73
2018-06-01T00:05:27.660Z,20.73
2018-06-01T00:07:55.047Z,20.74
2018-06-01T00:10:22.472Z,20.74
2018-06-01T00:12:49.880Z,20.74
2018-06-01T00:15:17.284Z,20.73
2018-06-01T00:17:44.712Z,20.73
2018-06-01T00:20:12.120Z,20.73
2018-06-01T00:22:39.540Z,20.71
2018-06-01T00:25:07.034Z,20.67
2018-06-01T00:27:34.468Z,20.62
2018-06-01T00:30:01.944Z,20.59
2018-06-01T00:32:29.401Z,20.58
2018-06-01T00:34:56.861Z,20.58
2018-06-01T00:37:24.358Z,20.59
2018-06-01T00:39:51.797Z,20.57
2018-06-01T00:42:19.216Z,20.45
2018-06-01T00:44:46.641Z,20.34
2018-06-01T00:47:14.056Z,20.31
2018-06-01T00:49:41.485Z,20.33
2018-06-01T00:52:08.893Z,20.34
2018-06-01T00:54:48.188Z,20.36
2018-06-01T00:57:15.592Z,20.35
2018-06-01T00:59:43.004Z,20.33
2018-06-01T01:02:10.432Z,20.30
2018-06-01T01:04:37.858Z,20.29
2018-06-01T01:07:05.269Z,20.30
2018-06-01T01:09:32.932Z,20.31
2018-06-01T01:12:00.331Z,20.31
2018-06-01T01:14:27.747Z,20.30
2018-06-01T01:16:55.176Z,20.27
2018-06-01T01:19:22.589Z,20.25
2018-06-01T01:21:50.000Z,20.24
2018-06-01T01:26:51.299Z,20.24
2018-06-01T01:29:18.721Z,20.21
2018-06-01T01:31:46.131Z,20.21
2018-06-01T01:34:13.556Z,20.19
2018-06-01T01:36:40.972Z,20.13
2018-06-01T01:39:08.400Z,20.12
2018-06-01T01:41:35.818Z,20.12
2018-06-01T01:44:03.222Z,20.13
2018-06-01T01:46:30.652Z,20.13
2018-06-01T01:48:58.064Z,20.13
2018-06-01T01:51:25.467Z,20.16
2018-06-01T01:53:52.928Z,20.19
2018-06-01T01:56:20.352Z,20.21
2018-06-01T01:58:47.749Z,20.22
2018-06-01T02:01:15.172Z,20.21
2018-06-01T02:03:42.604Z,20.20
2018-06-01T02:06:10.028Z,20.21
2018-06-01T02:08:37.812Z,20.24
2018-06-01T02:11:05.328Z,20.25
2018-06-01T02:13:32.825Z,20.27
2018-06-01T02:16:00.520Z,20.29
2018-06-01T02:18:28.027Z,20.28
2018-06-01T02:20:55.460Z,20.27
2018-06-01T02:23:22.903Z,20.28
2018-06-01T02:25:50.336Z,20.30
2018-06-01T02:28:17.765Z,20.29
2018-06-01T02:30:45.177Z,20.25
2018-06-01T02:33:12.612Z,20.24
2018-06-01T02:35:40.040Z,20.25
2018-06-01T02:38:07.455Z,20.24
2018-06-01T02:40:34.913Z,20.16
2018-06-01T02:43:02.352Z,20.14
2018-06-01T02:45:29.810Z,20.14
2018-06-01T02:47:57.312Z,20.18
2018-06-01T02:50:24.826Z,20.19
2018-06-01T02:52:52.504Z,20.22
2018-06-01T02:55:19.915Z,20.23
2018-06-01T02:57:47.327Z,20.24
2018-06-01T03:00:14.760Z,20.25
2018-06-01T03:02:42.163Z,20.25
2018-06-01T03:05:09.691Z,20.22
2018-06-01T03:07:37.104Z,20.22
2018-06-01T03:10:04.509Z,20.20
2018-06-01T03:12:31.939Z,20.16
2018-06-01T03:14:59.382Z,20.14
2018-06-01T03:17:26.792Z,20.13
2018-06-01T03:19:54.226Z,20.15
2018-06-01T03:22:21.657Z,20.17
2018-06-01T03:24:49.059Z,20.14
2018-06-01T03:27:17.189Z,20.14
2018-06-01T03:29:44.617Z,20.14
2018-06-01T03:32:12.020Z,20.13
2018-06-01T03:34:39.451Z,20.12
2018-06-01T03:37:06.857Z,20.13
2018-06-01T03:39:34.288Z,20.14
2018-06-01T03:42:01.692Z,20.11
2018-06-01T03:44:29.276Z,20.10
2018-06-01T03:46:56.684Z,20.11
2018-06-01T03:49:24.096Z,20.14
2018-06-01T03:51:51.527Z,20.15
2018-06-01T03:54:19.012Z,20.17
2018-06-01T03:56:46.468Z,20.20
2018-06-01T03:59:13.882Z,20.25
2018-06-01T04:01:41.287Z,20.28
2018-06-01T04:04:08.821Z,20.33
2018-06-01T04:06:36.232Z,20.40
2018-06-01T04:11:43.723Z,20.59
2018-06-01T04:14:11.136Z,20.66
2018-06-01T04:16:38.548Z,20.73
2018-06-01T04:19:06.072Z,20.78
2018-06-01T04:21:33.475Z,20.82
2018-06-01T04:24:00.895Z,20.91
2018-06-01T04:26:28.317Z,21.09
2018-06-01T04:28:55.754Z,21.37
2018-06-01T04:31:23.162Z,21.66
2018-06-01T04:33:50.579Z,21.89
2018-06-01T04:36:18.009Z,22.03
2018-06-01T04:38:45.439Z,22.14
2018-06-01T04:41:12.851Z,22.12
2018-06-01T04:43:40.280Z,22.22
2018-06-01T04:46:07.697Z,22.33
2018-06-01T04:48:35.199Z,22.53
2018-06-01T04:51:02.637Z,22.83
2018-06-01T04:53:30.410Z,23.02
2018-06-01T04:55:57.867Z,23.19
2018-06-01T04:58:26.249Z,23.47
2018-06-01T05:00:53.714Z,23.66
2018-06-01T05:03:21.164Z,23.67
2018-06-01T05:05:48.601Z,23.76
2018-06-01T05:08:16.012Z,23.96
2018-06-01T05:10:43.440Z,23.97
2018-06-01T05:13:10.852Z,23.92
2018-06-01T05:15:38.268Z,24.09
2018-06-01T05:18:05.710Z,24.12
2018-06-01T05:20:33.221Z,24.32
2018-06-01T05:23:00.660Z,24.54
2018-06-01T05:25:28.105Z,24.86
2018-06-01T05:27:55.548Z,25.05
2018-06-01T05:30:22.980Z,25.19
2018-06-01T05:32:50.397Z,25.32
2018-06-01T05:35:18.008Z,25.55
2018-06-01T05:37:45.421Z,25.83
2018-06-01T05:40:12.840Z,26.06
2018-06-01T05:42:40.271Z,26.19
2018-06-01T05:45:07.681Z,25.92
2018-06-01T05:47:35.117Z,25.70
2018-06-01T05:50:02.624Z,25.53
2018-06-01T05:52:30.031Z,25.45
2018-06-01T05:54:57.457Z,25.54
2018-06-01T05:57:24.865Z,25.61
2018-06-01T05:59:52.349Z,25.58
2018-06-01T06:02:19.765Z,25.68
2018-06-01T06:04:47.200Z,25.91
2018-06-01T06:07:14.616Z,25.95
2018-06-01T06:09:42.040Z,26.42
2018-06-01T06:12:09.465Z,27.04
2018-06-01T06:14:36.883Z,27.63
2018-06-01T06:17:04.352Z,27.75
2018-06-01T06:19:31.774Z,28.25
2018-06-01T06:21:59.317Z,28.54
2018-06-01T06:24:26.754Z,28.71
2018-06-01T06:26:54.197Z,29.12
2018-06-01T06:29:21.632Z,29.37
2018-06-01T06:31:49.043Z,29.58
2018-06-01T06:34:16.455Z,29.96
2018-06-01T06:36:44.020Z,30.38
2018-06-01T06:39:11.428Z,30.61
2018-06-01T06:41:38.849Z,30.75
2018-06-01T06:44:06.272Z,30.76
2018-06-01T06:46:33.708Z,30.93
2018-06-01T06:49:01.167Z,31.13
2018-06-01T06:51:29.190Z,31.26
2018-06-01T06:53:56.623Z,31.51
2018-06-01T06:56:24.050Z,31.66
2018-06-01T06:58:51.573Z,31.67
2018-06-01T07:01:18.989Z,31.37
2018-06-01T07:03:46.418Z,31.52
2018-06-01T07:06:13.829Z,31.60
2018-06-01T07:08:41.252Z,31.71
2018-06-01T07:11:08.666Z,31.86
2018-06-01T07:13:36.096Z,31.89
2018-06-01T07:16:03.512Z,32.09
2018-06-01T07:18:30.920Z,32.08
2018-06-01T07:20:58.360Z,31.94
2018-06-01T07:23:25.792Z,31.64
2018-06-01T07:25:53.220Z,31.38
2018-06-01T07:28:20.636Z,31.04
2018-06-01T07:30:48.052Z,30.40
2018-06-01T07:33:15.838Z,29.81
2018-06-01T07:35:43.210Z,29.14
2018-06-01T07:38:10.620Z,28.57
2018-06-01T07:40:38.062Z,28.14
2018-06-01T07:43:05.493Z,27.76
2018-06-01T07:45:32.921Z,27.43
2018-06-01T07:48:00.340Z,27.07
2018-06-01T07:50:27.782Z,26.94
2018-06-01T07:52:55.200Z,26.85
2018-06-01T07:55:22.608Z,26.77
2018-06-01T07:57:50.049Z,26.71
2018-06-01T08:00:17.505Z,26.59
2018-06-01T08:02:44.931Z,26.53
2018-06-01T08:05:12.358Z,26.47
2018-06-01T08:07:39.765Z,26.43
2018-06-01T08:10:07.188Z,26.45
2018-06-01T08:12:34.603Z,26.34
2018-06-01T08:15:02.064Z,26.43
2018-06-01T08:17:29.477Z,26.51
2018-06-01T08:19:56.896Z,26.65
2018-06-01T08:22:24.348Z,26.86
2018-06-01T08:24:51.822Z,27.22
2018-06-01T08:27:19.253Z,27.45
2018-06-01T08:29:46.692Z,27.93
2018-06-01T08:32:14.116Z,28.44
2018-06-01T08:34:41.523Z,28.88
2018-06-01T08:37:09.040Z,29.26
2018-06-01T08:39:36.511Z,29.82
2018-06-01T08:42:03.981Z,30.45
2018-06-01T08:44:31.449Z,30.63
2018-06-01T08:46:58.931Z,30.93
2018-06-01T08:49:26.349Z,31.28
2018-06-01T08:51:53.861Z,31.42
2018-06-01T08:54:21.283Z,31.47
2018-06-01T08:56:48.699Z,31.50
2018-06-01T08:59:16.172Z,31.65
2018-06-01T09:01:43.567Z,31.84
2018-06-01T09:04:10.979Z,31.96
2018-06-01T09:06:38.593Z,31.78
2018-06-01T09:09:06.072Z,31.46
2018-06-01T09:11:33.428Z,31.16
2018-06-01T09:14:00.859Z,31.02
2018-06-01T09:16:28.295Z,31.07
2018-06-01T09:18:55.893Z,31.11
2018-06-01T09:21:23.417Z,30.97
2018-06-01T09:23:50.840Z,31.16
2018-06-01T09:26:18.388Z,31.47
2018-06-01T09:28:45.797Z,31.85
2018-06-01T09:31:13.215Z,32.00
2018-06-01T09:33:40.646Z,31.80
2018-06-01T09:36:08.072Z,31.64
2018-06-01T09:38:35.525Z,31.39
2018-06-01T09:41:02.978Z,31.00
2018-06-01T09:43:30.391Z,30.57
2018-06-01T09:45:57.815Z,30.17
2018-06-01T09:48:25.232Z,29.86
2018-06-01T09:50:52.653Z,29.54
2018-06-01T09:53:20.067Z,29.16
2018-06-01T09:55:47.484Z,28.83
2018-06-01T09:58:14.906Z,28.62
2018-06-01T10:00:47.859Z,28.37
2018-06-01T10:03:15.303Z,28.08
2018-06-01T10:05:42.744Z,27.86
2018-06-01T10:08:10.165Z,27.55
2018-06-01T10:10:37.583Z,27.26
2018-06-01T10:13:05.033Z,27.06
2018-06-01T10:15:32.511Z,26.89
2018-06-01T10:17:59.895Z,26.70
2018-06-01T10:20:27.316Z,26.55
2018-06-01T10:22:54.755Z,26.39
2018-06-01T10:25:22.184Z,26.25
2018-06-01T10:27:49.603Z,26.14
2018-06-01T10:30:17.008Z,26.09
2018-06-01T10:32:44.490Z,26.06
2018-06-01T10:35:11.912Z,25.95
2018-06-01T10:37:39.337Z,25.93
2018-06-01T10:40:06.753Z,25.86
2018-06-01T10:42:34.176Z,25.75
2018-06-01T10:45:01.623Z,25.63
2018-06-01T10:47:29.027Z,25.46
2018-06-01T10:49:56.432Z,25.37
2018-06-01T10:52:23.869Z,25.12
2018-06-01T10:54:51.324Z,24.95
2018-06-01T10:57:18.823Z,24.81
2018-06-01T10:59:46.228Z,24.71
2018-06-01T11:02:13.633Z,24.61
2018-06-01T11:04:41.057Z,24.58
2018-06-01T11:07:08.463Z,24.56
2018-06-01T11:09:35.936Z,24.58
2018-06-01T11:12:03.342Z,24.63
2018-06-01T11:14:30.763Z,24.64
2018-06-01T11:16:58.427Z,24.88
2018-06-01T11:19:26.612Z,25.04
2018-06-01T11:21:54.453Z,25.31
2018-06-01T11:24:21.893Z,25.51
2018-06-01T11:26:49.560Z,25.73
2018-06-01T11:29:17.652Z,25.95
2018-06-01T11:31:45.085Z,26.09
2018-06-01T11:34:12.513Z,26.14
2018-06-01T11:36:39.993Z,26.10
2018-06-01T11:39:08.194Z,26.01
2018-06-01T11:41:36.545Z,26.10
2018-06-01T11:44:03.988Z,26.28
2018-06-01T11:46:40.265Z,26.36
2018-06-01T11:49:11.951Z,26.58
2018-06-01T11:51:39.653Z,26.83
2018-06-01T11:54:08.923Z,26.97
2018-06-01T11:56:36.618Z,27.05
2018-06-01T11:59:04.563Z,27.18
2018-06-01T12:01:38.439Z,27.32
2018-06-01T12:04:06.298Z,27.32
2018-06-01T12:06:35.999Z,27.24
2018-06-01T12:09:05.904Z,27.12
2018-06-01T12:11:33.485Z,27.07
2018-06-01T12:14:02.389Z,27.01
2018-06-01T12:16:30.270Z,27.04
2018-06-01T12:18:58.403Z,27.19
2018-06-01T12:21:26.033Z,27.27
2018-06-01T12:23:53.576Z,27.37
2018-06-01T12:26:21.159Z,27.33
2018-06-01T12:28:53.082Z,27.42
2018-06-01T12:31:25.105Z,27.46
2018-06-01T12:33:53.328Z,27.47
2018-06-01T12:36:20.824Z,27.41
2018-06-01T12:38:48.267Z,27.39
2018-06-01T12:41:15.824Z,27.34
2018-06-01T12:43:43.327Z,27.29
2018-06-01T12:46:10.837Z,27.08
2018-06-01T12:48:38.398Z,26.89
2018-06-01T12:51:06.104Z,26.72
2018-06-01T12:53:33.716Z,26.22
2018-06-01T12:56:01.142Z,25.81
2018-06-01T12:58:30.326Z,25.39
2018-06-01T13:00:57.828Z,25.46
2018-06-01T13:03:25.258Z,25.41
2018-06-01T13:05:52.756Z,25.38
2018-06-01T13:08:20.174Z,25.37
2018-06-01T13:10:47.599Z,25.44
2018-06-01T13:13:15.741Z,25.48
2018-06-01T13:15:43.140Z,25.54
2018-06-01T13:18:10.881Z,25.67
2018-06-01T13:20:38.490Z,25.87
2018-06-01T13:23:05.891Z,26.03
2018-06-01T13:25:33.519Z,26.24
2018-06-01T13:28:00.971Z,26.40
2018-06-01T13:30:29.305Z,26.49
2018-06-01T13:32:56.834Z,26.67
2018-06-01T13:35:24.367Z,26.89
2018-06-01T13:37:51.728Z,27.10
2018-06-01T13:40:19.146Z,27.25
2018-06-01T13:42:46.584Z,27.36
2018-06-01T13:45:14.021Z,27.49
2018-06-01T13:47:41.461Z,27.55
2018-06-01T13:50:08.851Z,27.68
2018-06-01T13:52:36.293Z,27.86
2018-06-01T13:55:03.708Z,28.09
2018-06-01T13:57:31.226Z,28.29
2018-06-01T13:59:58.636Z,28.45
2018-06-01T14:02:26.405Z,28.56
2018-06-01T14:04:53.869Z,28.63
2018-06-01T14:07:21.514Z,28.75
2018-06-01T14:09:48.949Z,28.82
2018-06-01T14:12:16.964Z,28.86
2018-06-01T14:14:44.849Z,28.80
2018-06-01T14:17:12.707Z,28.84
2018-06-01T14:19:40.640Z,28.87
2018-06-01T14:22:08.229Z,28.86
2018-06-01T14:24:36.226Z,28.88
2018-06-01T14:27:03.888Z,28.88
2018-06-01T14:29:31.615Z,28.91
2018-06-01T14:31:59.208Z,28.79
2018-06-01T14:34:27.055Z,28.72
2018-06-01T14:36:54.757Z,28.74
2018-06-01T14:39:24.329Z,28.69
2018-06-01T14:41:51.760Z,28.64
2018-06-01T14:44:19.283Z,28.57
2018-06-01T14:46:46.921Z,28.53
2018-06-01T14:49:14.445Z,28.44
2018-06-01T14:51:41.852Z,28.37
2018-06-01T14:54:09.302Z,28.32
2018-06-01T14:56:36.712Z,28.33
2018-06-01T14:59:04.141Z,28.31
2018-06-01T15:01:31.591Z,28.27
2018-06-01T15:03:59.263Z,28.15
2018-06-01T15:06:26.747Z,27.98
2018-06-01T15:08:55.495Z,27.94
2018-06-01T15:11:23.134Z,27.94
2018-06-01T15:13:50.573Z,27.96
2018-06-01T15:16:18.174Z,27.95
2018-06-01T15:18:45.649Z,27.93
2018-06-01T15:21:13.087Z,27.87
2018-06-01T15:23:40.813Z,27.83
2018-06-01T15:26:08.293Z,27.70
2018-06-01T15:28:36.050Z,27.54
2018-06-01T15:31:03.587Z,27.47
2018-06-01T15:33:31.123Z,27.43
2018-06-01T15:35:59.400Z,27.41
2018-06-01T15:38:26.836Z,27.48
2018-06-01T15:40:54.494Z,27.50
2018-06-01T15:43:21.926Z,27.53
2018-06-01T15:45:49.395Z,27.56
2018-06-01T15:48:16.806Z,27.53
2018-06-01T15:50:44.246Z,27.43
2018-06-01T15:53:11.665Z,27.45
2018-06-01T15:55:39.083Z,27.44
2018-06-01T15:58:06.513Z,27.39
2018-06-01T16:00:33.967Z,27.32
2018-06-01T16:03:01.754Z,27.24
2018-06-01T16:05:29.191Z,27.16
2018-06-01T16:07:56.644Z,27.16
2018-06-01T16:10:24.127Z,27.08
2018-06-01T16:12:51.532Z,27.02
2018-06-01T16:15:18.951Z,26.95
2018-06-01T16:17:46.372Z,26.89
2018-06-01T16:20:13.891Z,26.87
2018-06-01T16:22:41.324Z,26.89
2018-06-01T16:25:08.758Z,26.76
2018-06-01T16:27:36.245Z,26.73
2018-06-01T16:30:03.779Z,26.70
2018-06-01T16:32:31.216Z,26.75
2018-06-01T16:34:58.709Z,26.66
2018-06-01T16:37:26.202Z,26.69
2018-06-01T16:39:53.631Z,26.63
2018-06-01T16:42:21.068Z,26.52
2018-06-01T16:44:48.503Z,26.54
2018-06-01T16:47:15.915Z,26.65
2018-06-01T16:49:43.338Z,26.68
2018-06-01T16:52:10.791Z,26.69
2018-06-01T16:54:38.213Z,26.64
2018-06-01T16:57:05.643Z,26.60
2018-06-01T16:59:33.104Z,26.58
2018-06-01T17:02:00.549Z,26.58
2018-06-01T17:04:27.984Z,26.55
2018-06-01T17:06:55.392Z,26.55
2018-06-01T17:09:22.888Z,26.57
2018-06-01T17:11:50.320Z,26.61
2018-06-01T17:14:17.744Z,26.65
2018-06-01T17:16:45.281Z,26.68
2018-06-01T17:19:12.691Z,26.71
2018-06-01T17:21:40.132Z,26.71
2018-06-01T17:24:07.544Z,26.65
2018-06-01T17:26:34.949Z,26.63
2018-06-01T17:29:02.395Z,26.57
2018-06-01T17:31:29.804Z,26.53
2018-06-01T17:33:57.354Z,26.48
2018-06-01T17:36:25.924Z,26.47
2018-06-01T17:38:53.328Z,26.44
2018-06-01T17:41:22.022Z,26.38
2018-06-01T17:43:50.022Z,26.30
2018-06-01T17:46:19.778Z,26.27
2018-06-01T17:48:47.348Z,26.21
2018-06-01T17:51:14.955Z,26.15
2018-06-01T17:53:42.397Z,26.08
2018-06-01T17:56:09.816Z,26.07
2018-06-01T17:58:37.501Z,26.05
2018-06-01T18:01:04.912Z,26.02
2018-06-01T18:03:32.376Z,25.93
2018-06-01T18:05:59.861Z,25.90
2018-06-01T18:08:27.293Z,25.83
2018-06-01T18:10:54.733Z,25.76
2018-06-01T18:13:22.159Z,25.70
2018-06-01T18:15:49.619Z,25.64
2018-06-01T18:18:17.090Z,25.61
2018-06-01T18:20:44.513Z,25.57
2018-06-01T18:23:11.952Z,25.53
2018-06-01T18:25:39.370Z,25.47
2018-06-01T18:28:06.780Z,25.43
2018-06-01T18:30:34.207Z,25.38
2018-06-01T18:33:01.611Z,25.33
2018-06-01T18:35:29.031Z,25.28
2018-06-01T18:37:56.445Z,25.23
2018-06-01T18:40:23.856Z,25.18
2018-06-01T18:42:51.285Z,25.12
2018-06-01T18:45:18.729Z,25.08
2018-06-01T18:47:46.127Z,25.03
2018-06-01T18:50:13.588Z,24.99
2018-06-01T18:52:41.127Z,24.95
2018-06-01T18:55:08.631Z,24.90
2018-06-01T18:57:36.060Z,24.83
2018-06-01T19:00:03.484Z,24.72
2018-06-01T19:02:30.904Z,24.70
2018-06-01T19:04:58.316Z,24.66
2018-06-01T19:07:25.752Z,24.57
2018-06-01T19:09:53.174Z,24.52
2018-06-01T19:12:20.580Z,24.46
2018-06-01T19:14:48.018Z,24.40
2018-06-01T19:17:15.432Z,24.33
2018-06-01T19:19:42.864Z,24.30
2018-06-01T19:22:10.281Z,24.26
2018-06-01T19:24:37.699Z,24.23
2018-06-01T19:27:05.190Z,24.18
2018-06-01T19:29:32.682Z,24.13
2018-06-01T19:32:00.137Z,24.08
2018-06-01T19:34:27.653Z,24.02
2018-06-01T19:36:55.081Z,23.98
2018-06-01T19:39:22.541Z,23.94
2018-06-01T19:41:49.977Z,23.89
2018-06-01T19:44:17.393Z,23.85
2018-06-01T19:46:44.820Z,23.80
2018-06-01T19:49:12.237Z,23.76
2018-06-01T19:51:39.675Z,23.71
2018-06-01T19:54:07.087Z,23.65
2018-06-01T19:56:34.572Z,23.58
2018-06-01T19:59:02.028Z,23.55
2018-06-01T20:01:29.533Z,23.49
2018-06-01T20:03:56.972Z,23.45
2018-06-01T20:06:24.395Z,23.33
2018-06-01T20:08:51.803Z,23.24
2018-06-01T20:11:19.227Z,23.16
2018-06-01T20:13:46.639Z,23.05
2018-06-01T20:16:14.069Z,22.96
2018-06-01T20:18:41.485Z,22.90
2018-06-01T20:21:08.886Z,22.83
2018-06-01T20:23:39.228Z,22.75
2018-06-01T20:26:06.650Z,22.72
2018-06-01T20:28:34.111Z,22.68
2018-06-01T20:31:01.577Z,22.61
2018-06-01T20:33:29.095Z,22.62
2018-06-01T20:35:56.594Z,22.58
2018-06-01T20:38:24.048Z,22.57
2018-06-01T20:40:51.508Z,22.55
2018-06-01T20:43:18.935Z,22.53
2018-06-01T20:45:46.393Z,22.53
2018-06-01T20:48:13.833Z,22.53
2018-06-01T20:50:41.249Z,22.54
2018-06-01T20:53:08.988Z,22.56
2018-06-01T20:55:36.453Z,22.54
2018-06-01T20:58:03.950Z,22.54
2018-06-01T21:00:31.396Z,22.54
2018-06-01T21:02:58.872Z,22.55
2018-06-01T21:05:26.502Z,22.51
2018-06-01T21:07:53.959Z,22.48
2018-06-01T21:10:21.378Z,22.44
2018-06-01T21:12:48.916Z,22.38
2018-06-01T21:15:16.334Z,22.33
2018-06-01T21:17:43.748Z,22.31
2018-06-01T21:20:11.185Z,22.29
2018-06-01T21:22:38.605Z,22.26
2018-06-01T21:25:06.179Z,22.24
2018-06-01T21:27:33.638Z,22.24
2018-06-01T21:30:01.194Z,22.24
2018-06-01T21:32:28.786Z,22.23
2018-06-01T21:34:56.307Z,22.23
2018-06-01T21:37:23.977Z,22.23
2018-06-01T21:39:51.391Z,22.22
2018-06-01T21:42:18.811Z,22.23
2018-06-01T21:44:46.339Z,22.22
2018-06-01T21:47:13.755Z,22.21
2018-06-01T21:49:41.172Z,22.21
2018-06-01T21:52:08.605Z,22.17
2018-06-01T21:54:36.132Z,22.11
2018-06-01T21:57:03.796Z,22.06
2018-06-01T21:59:31.216Z,22.01
2018-06-01T22:01:58.621Z,21.98
2018-06-01T22:04:26.082Z,21.94
2018-06-01T22:06:53.481Z,21.89
2018-06-01T22:09:20.914Z,21.87
2018-06-01T22:11:48.328Z,21.82
2018-06-01T22:14:15.740Z,21.75
2018-06-01T22:19:09.863Z,21.65
2018-06-01T22:21:37.275Z,21.63
2018-06-01T22:24:04.705Z,21.61
2018-06-01T22:26:32.114Z,21.60
2018-06-01T22:28:59.536Z,21.60
2018-06-01T22:31:26.972Z,21.62
2018-06-01T22:33:54.392Z,21.60
2018-06-01T22:36:21.823Z,21.58
2018-06-01T22:38:49.224Z,21.56
2018-06-01T22:41:16.657Z,21.53
2018-06-01T22:43:44.325Z,21.45
2018-06-01T22:46:11.756Z,21.41
2018-06-01T22:48:39.170Z,21.37
2018-06-01T22:51:06.596Z,21.33
2018-06-01T22:53:34.235Z,21.30
2018-06-01T22:56:01.652Z,21.22
2018-06-01T22:58:29.063Z,21.20
2018-06-01T23:00:56.484Z,21.11
2018-06-01T23:03:23.911Z,21.07
2018-06-01T23:05:51.319Z,21.04
2018-06-01T23:08:18.736Z,21.01
2018-06-01T23:10:46.169Z,21.00
2018-06-01T23:13:13.588Z,20.95
2018-06-01T23:15:40.993Z,20.90
2018-06-01T23:18:08.424Z,20.88
2018-06-01T23:20:35.857Z,20.84
2018-06-01T23:23:03.274Z,20.80
2018-06-01T23:25:30.716Z,20.82
2018-06-01T23:27:58.135Z,20.81
2018-06-01T23:30:25.555Z,20.81
2018-06-01T23:32:52.965Z,20.77
2018-06-01T23:35:20.406Z,20.77
2018-06-01T23:37:47.799Z,20.76
2018-06-01T23:40:15.242Z,20.76
2018-06-01T23:42:42.647Z,20.75
2018-06-01T23:45:10.056Z,20.72
2018-06-01T23:47:37.743Z,20.72
2018-06-01T23:50:05.160Z,20.72
2018-06-01T23:52:32.592Z,20.72
2018-06-01T23:54:59.996Z,20.72
2018-06-01T23:57:27.412Z,20.72
2018-06-01T23:59:54.940Z,20.68
